sensor_id;sensor_type;location;lat;lon;timestamp;pressure;altitude;pressure_sealevel;temperature;humidity
42671;BME280;28283;55.426;37.756;2022-09-09T00:03:21;100107.81;;;4.99;80.37
42671;BME280;28283;55.426;37.756;2022-09-09T00:09:30;100115.06;;;5.07;79.97
42671;BME280;28283;55.426;37.756;2022-09-09T00:14:00;100119.56;;;5.06;79.83
42671;BME280;28283;55.426;37.756;2022-09-09T00:19:08;100050.16;;;4.61;79.91
42671;BME280;28283;55.426;37.756;2022-09-09T00:24:38;100101.53;;;4.81;80.33
42671;BME280;28283;55.426;37.756;2022-09-09T00:29:47;100135.00;;;5.03;80.55
42671;BME280;28283;55.426;37.756;2022-09-09T00:34:59;100133.25;;;5.11;80.26
42671;BME280;28283;55.426;37.756;2022-09-09T00:40:11;100135.50;;;5.16;79.88
42671;BME280;28283;55.426;37.756;2022-09-09T00:50:53;100146.91;;;5.08;80.56
42671;BME280;28283;55.426;37.756;2022-09-09T00:56:19;100141.78;;;5.15;80.19
42671;BME280;28283;55.426;37.756;2022-09-09T01:01:22;100110.38;;;4.81;80.84
42671;BME280;28283;55.426;37.756;2022-09-09T01:06:32;100136.09;;;5.10;81.00
42671;BME280;28283;55.426;37.756;2022-09-09T01:11:52;100161.31;;;5.15;80.95
42671;BME280;28283;55.426;37.756;2022-09-09T01:16:59;100147.13;;;5.15;81.29
42671;BME280;28283;55.426;37.756;2022-09-09T01:22:10;100122.59;;;5.11;81.24
42671;BME280;28283;55.426;37.756;2022-09-09T01:27:16;100153.78;;;5.39;80.12
42671;BME280;28283;55.426;37.756;2022-09-09T01:32:44;100172.13;;;5.42;80.81
42671;BME280;28283;55.426;37.756;2022-09-09T01:37:45;100162.47;;;5.41;80.57
42671;BME280;28283;55.426;37.756;2022-09-09T01:42:46;100168.78;;;5.40;80.64
42671;BME280;28283;55.426;37.756;2022-09-09T01:47:47;100170.19;;;5.44;79.85
42671;BME280;28283;55.426;37.756;2022-09-09T01:52:50;100185.53;;;5.32;79.93
42671;BME280;28283;55.426;37.756;2022-09-09T02:03:24;100203.09;;;5.15;81.02
42671;BME280;28283;55.426;37.756;2022-09-09T02:08:36;100195.09;;;5.15;81.11
42671;BME280;28283;55.426;37.756;2022-09-09T02:13:39;100195.97;;;5.06;81.60
42671;BME280;28283;55.426;37.756;2022-09-09T02:24:07;100196.66;;;5.18;81.20
42671;BME280;28283;55.426;37.756;2022-09-09T02:29:17;100196.91;;;5.24;81.19
42671;BME280;28283;55.426;37.756;2022-09-09T02:34:21;100178.47;;;5.03;81.35
42671;BME280;28283;55.426;37.756;2022-09-09T02:39:24;100196.53;;;5.09;81.58
42671;BME280;28283;55.426;37.756;2022-09-09T02:44:25;100206.63;;;5.15;81.69
42671;BME280;28283;55.426;37.756;2022-09-09T02:50:01;100208.59;;;5.13;81.83
42671;BME280;28283;55.426;37.756;2022-09-09T02:55:13;100218.47;;;5.31;81.56
42671;BME280;28283;55.426;37.756;2022-09-09T03:00:23;100191.88;;;5.11;80.58
42671;BME280;28283;55.426;37.756;2022-09-09T03:05:24;100235.50;;;5.20;81.19
42671;BME280;28283;55.426;37.756;2022-09-09T03:10:26;100231.47;;;5.06;81.16
42671;BME280;28283;55.426;37.756;2022-09-09T03:15:27;100203.31;;;4.94;81.28
42671;BME280;28283;55.426;37.756;2022-09-09T03:20:30;100229.66;;;5.07;81.53
42671;BME280;28283;55.426;37.756;2022-09-09T03:25:31;100230.19;;;5.01;81.59
42671;BME280;28283;55.426;37.756;2022-09-09T03:30:32;100194.22;;;4.77;81.69
42671;BME280;28283;55.426;37.756;2022-09-09T03:35:33;100246.19;;;5.10;81.48
42671;BME280;28283;55.426;37.756;2022-09-09T03:40:33;100238.75;;;5.04;81.77
42671;BME280;28283;55.426;37.756;2022-09-09T03:45:34;100225.47;;;4.94;81.17
42671;BME280;28283;55.426;37.756;2022-09-09T03:50:35;100225.47;;;4.94;81.56
42671;BME280;28283;55.426;37.756;2022-09-09T03:55:35;100270.97;;;5.30;81.32
42671;BME280;28283;55.426;37.756;2022-09-09T04:00:36;100270.00;;;5.31;81.40
42671;BME280;28283;55.426;37.756;2022-09-09T04:05:40;100271.09;;;5.29;81.51
42671;BME280;28283;55.426;37.756;2022-09-09T04:10:44;100266.91;;;5.26;81.55
42671;BME280;28283;55.426;37.756;2022-09-09T04:15:53;100277.84;;;5.33;81.66
42671;BME280;28283;55.426;37.756;2022-09-09T04:20:55;100286.38;;;5.46;81.48
42671;BME280;28283;55.426;37.756;2022-09-09T04:26:00;100300.31;;;5.68;81.18
42671;BME280;28283;55.426;37.756;2022-09-09T04:31:08;100297.72;;;5.86;81.35
42671;BME280;28283;55.426;37.756;2022-09-09T04:36:10;100253.06;;;5.88;79.66
42671;BME280;28283;55.426;37.756;2022-09-09T04:41:11;100265.91;;;6.12;79.89
42671;BME280;28283;55.426;37.756;2022-09-09T04:46:11;100298.31;;;6.63;79.33
42671;BME280;28283;55.426;37.756;2022-09-09T04:51:14;100268.38;;;6.59;78.62
42671;BME280;28283;55.426;37.756;2022-09-09T04:56:15;100292.16;;;7.06;77.26
42671;BME280;28283;55.426;37.756;2022-09-09T05:01:19;100256.19;;;7.01;76.82
42671;BME280;28283;55.426;37.756;2022-09-09T05:06:21;100291.94;;;7.44;75.64
42671;BME280;28283;55.426;37.756;2022-09-09T05:16:24;100261.22;;;7.91;72.85
42671;BME280;28283;55.426;37.756;2022-09-09T05:21:25;100299.31;;;8.19;71.79
42671;BME280;28283;55.426;37.756;2022-09-09T05:26:26;100323.78;;;8.75;73.73
42671;BME280;28283;55.426;37.756;2022-09-09T05:31:29;100319.63;;;9.05;70.14
42671;BME280;28283;55.426;37.756;2022-09-09T05:36:30;100295.31;;;9.23;68.08
42671;BME280;28283;55.426;37.756;2022-09-09T05:41:31;100265.97;;;9.22;66.80
42671;BME280;28283;55.426;37.756;2022-09-09T05:46:32;100305.16;;;9.64;65.97
42671;BME280;28283;55.426;37.756;2022-09-09T05:51:32;100328.88;;;9.91;64.27
42671;BME280;28283;55.426;37.756;2022-09-09T05:56:33;100311.25;;;9.97;63.16
42671;BME280;28283;55.426;37.756;2022-09-09T06:01:35;100329.13;;;10.21;62.66
42671;BME280;28283;55.426;37.756;2022-09-09T06:06:37;100344.72;;;10.34;62.39
42671;BME280;28283;55.426;37.756;2022-09-09T06:11:40;100307.97;;;10.18;60.72
42671;BME280;28283;55.426;37.756;2022-09-09T06:16:41;100346.34;;;10.43;62.39
42671;BME280;28283;55.426;37.756;2022-09-09T06:21:45;100347.56;;;10.24;60.05
42671;BME280;28283;55.426;37.756;2022-09-09T06:26:45;100342.19;;;10.24;58.68
42671;BME280;28283;55.426;37.756;2022-09-09T06:31:46;100352.25;;;10.39;57.56
42671;BME280;28283;55.426;37.756;2022-09-09T06:36:47;100355.75;;;10.79;59.67
42671;BME280;28283;55.426;37.756;2022-09-09T06:42:00;100358.88;;;10.59;58.79
42671;BME280;28283;55.426;37.756;2022-09-09T06:47:04;100369.06;;;10.32;57.32
42671;BME280;28283;55.426;37.756;2022-09-09T06:52:05;100371.59;;;10.34;56.00
42671;BME280;28283;55.426;37.756;2022-09-09T06:57:06;100359.84;;;10.66;54.04
42671;BME280;28283;55.426;37.756;2022-09-09T07:02:07;100364.47;;;11.04;51.69
42671;BME280;28283;55.426;37.756;2022-09-09T07:07:08;100381.16;;;11.22;51.43
42671;BME280;28283;55.426;37.756;2022-09-09T07:12:12;100376.25;;;11.03;51.32
42671;BME280;28283;55.426;37.756;2022-09-09T07:17:12;100390.72;;;11.25;50.33
42671;BME280;28283;55.426;37.756;2022-09-09T07:22:13;100359.56;;;11.31;49.19
42671;BME280;28283;55.426;37.756;2022-09-09T07:27:14;100398.25;;;11.53;52.70
42671;BME280;28283;55.426;37.756;2022-09-09T07:32:15;100394.94;;;10.96;49.67
42671;BME280;28283;55.426;37.756;2022-09-09T07:37:17;100406.72;;;10.64;50.38
42671;BME280;28283;55.426;37.756;2022-09-09T07:42:18;100373.25;;;10.35;50.71
42671;BME280;28283;55.426;37.756;2022-09-09T07:47:19;100366.78;;;10.53;49.69
42671;BME280;28283;55.426;37.756;2022-09-09T07:52:20;100374.72;;;10.46;50.00
42671;BME280;28283;55.426;37.756;2022-09-09T07:57:21;100418.16;;;10.97;53.24
42671;BME280;28283;55.426;37.756;2022-09-09T08:02:23;100385.22;;;11.18;49.28
42671;BME280;28283;55.426;37.756;2022-09-09T08:07:24;100379.06;;;11.71;48.55
42671;BME280;28283;55.426;37.756;2022-09-09T08:12:25;100422.94;;;12.47;47.19
42671;BME280;28283;55.426;37.756;2022-09-09T08:17:25;100352.81;;;12.47;46.28
42671;BME280;28283;55.426;37.756;2022-09-09T08:22:26;100413.28;;;13.11;45.63
42671;BME280;28283;55.426;37.756;2022-09-09T08:27:27;100389.81;;;12.90;45.15
42671;BME280;28283;55.426;37.756;2022-09-09T08:32:28;100379.47;;;12.93;44.07
42671;BME280;28283;55.426;37.756;2022-09-09T08:37:29;100428.34;;;13.20;43.67
42671;BME280;28283;55.426;37.756;2022-09-09T08:53:13;100381.56;;;11.95;46.00
42671;BME280;28283;55.426;37.756;2022-09-09T08:58:20;100435.56;;;12.32;45.71
42671;BME280;28283;55.426;37.756;2022-09-09T09:08:45;100437.59;;;12.30;43.83
42671;BME280;28283;55.426;37.756;2022-09-09T09:14:04;100444.47;;;12.17;45.58
42671;BME280;28283;55.426;37.756;2022-09-09T09:19:13;100408.69;;;11.94;45.99
42671;BME280;28283;55.426;37.756;2022-09-09T09:24:19;100424.06;;;11.85;44.64
42671;BME280;28283;55.426;37.756;2022-09-09T09:29:21;100420.94;;;11.35;45.00
42671;BME280;28283;55.426;37.756;2022-09-09T09:34:22;100437.44;;;11.32;45.62
42671;BME280;28283;55.426;37.756;2022-09-09T09:44:30;100418.63;;;12.38;44.34
42671;BME280;28283;55.426;37.756;2022-09-09T09:49:33;100441.69;;;12.26;45.41
42671;BME280;28283;55.426;37.756;2022-09-09T09:54:38;100444.47;;;12.32;45.24
42671;BME280;28283;55.426;37.756;2022-09-09T09:59:39;100437.09;;;12.11;44.94
42671;BME280;28283;55.426;37.756;2022-09-09T10:04:40;100408.75;;;12.45;42.74
42671;BME280;28283;55.426;37.756;2022-09-09T10:09:41;100440.16;;;12.97;43.93
42671;BME280;28283;55.426;37.756;2022-09-09T10:14:53;100448.09;;;13.06;42.20
42671;BME280;28283;55.426;37.756;2022-09-09T10:25:37;100449.97;;;13.05;43.26
42671;BME280;28283;55.426;37.756;2022-09-09T10:31:04;100455.78;;;12.87;43.04
42671;BME280;28283;55.426;37.756;2022-09-09T10:36:13;100449.66;;;13.15;43.00
42671;BME280;28283;55.426;37.756;2022-09-09T10:56:44;100450.34;;;13.60;41.40
42671;BME280;28283;55.426;37.756;2022-09-09T11:01:58;100444.22;;;13.94;41.45
42671;BME280;28283;55.426;37.756;2022-09-09T11:07:06;100444.97;;;14.45;40.12
42671;BME280;28283;55.426;37.756;2022-09-09T11:12:14;100400.13;;;14.64;38.48
42671;BME280;28283;55.426;37.756;2022-09-09T11:17:22;100389.84;;;14.11;38.94
42671;BME280;28283;55.426;37.756;2022-09-09T11:22:36;100395.63;;;13.30;41.19
42671;BME280;28283;55.426;37.756;2022-09-09T11:28:11;100449.16;;;14.19;39.99
42671;BME280;28283;55.426;37.756;2022-09-09T11:33:37;100445.09;;;14.65;39.75
42671;BME280;28283;55.426;37.756;2022-09-09T11:43:52;100455.88;;;14.30;39.30
42671;BME280;28283;55.426;37.756;2022-09-09T11:49:01;100456.16;;;14.07;39.30
42671;BME280;28283;55.426;37.756;2022-09-09T11:54:30;100449.06;;;14.06;40.07
42671;BME280;28283;55.426;37.756;2022-09-09T11:59:32;100444.66;;;13.98;39.46
42671;BME280;28283;55.426;37.756;2022-09-09T12:04:46;100443.47;;;14.07;40.25
42671;BME280;28283;55.426;37.756;2022-09-09T12:09:52;100443.94;;;14.81;38.64
42671;BME280;28283;55.426;37.756;2022-09-09T12:15:15;100438.44;;;14.67;37.24
42671;BME280;28283;55.426;37.756;2022-09-09T12:20:26;100439.38;;;14.88;37.70
42671;BME280;28283;55.426;37.756;2022-09-09T12:36:29;100402.94;;;14.91;37.95
42671;BME280;28283;55.426;37.756;2022-09-09T12:41:30;100440.44;;;14.94;37.61
42671;BME280;28283;55.426;37.756;2022-09-09T12:46:42;100437.06;;;14.85;37.44
42671;BME280;28283;55.426;37.756;2022-09-09T12:51:45;100440.94;;;14.34;37.98
42671;BME280;28283;55.426;37.756;2022-09-09T12:56:47;100444.19;;;14.23;37.88
42671;BME280;28283;55.426;37.756;2022-09-09T13:01:55;100415.09;;;14.25;38.07
42671;BME280;28283;55.426;37.756;2022-09-09T13:07:06;100437.38;;;13.99;39.31
42671;BME280;28283;55.426;37.756;2022-09-09T13:12:18;100438.22;;;13.99;38.85
42671;BME280;28283;55.426;37.756;2022-09-09T13:17:22;100368.19;;;13.48;39.78
42671;BME280;28283;55.426;37.756;2022-09-09T13:22:37;100427.50;;;13.84;40.30
42671;BME280;28283;55.426;37.756;2022-09-09T13:27:41;100425.41;;;13.58;40.79
42671;BME280;28283;55.426;37.756;2022-09-09T13:33:20;100428.09;;;13.58;40.26
42671;BME280;28283;55.426;37.756;2022-09-09T13:38:21;100442.22;;;13.32;41.01
42671;BME280;28283;55.426;37.756;2022-09-09T13:43:23;100435.41;;;13.21;41.11
42671;BME280;28283;55.426;37.756;2022-09-09T13:48:25;100440.53;;;12.94;41.76
42671;BME280;28283;55.426;37.756;2022-09-09T13:53:26;100446.78;;;12.80;42.43
42671;BME280;28283;55.426;37.756;2022-09-09T13:58:27;100438.00;;;12.93;42.00
42671;BME280;28283;55.426;37.756;2022-09-09T14:03:28;100454.03;;;12.79;43.02
42671;BME280;28283;55.426;37.756;2022-09-09T14:08:29;100414.56;;;12.42;43.16
42671;BME280;28283;55.426;37.756;2022-09-09T14:13:37;100443.81;;;12.45;43.58
42671;BME280;28283;55.426;37.756;2022-09-09T14:18:38;100447.56;;;12.44;43.16
42671;BME280;28283;55.426;37.756;2022-09-09T14:23:39;100448.31;;;12.53;43.53
42671;BME280;28283;55.426;37.756;2022-09-09T14:28:40;100443.44;;;12.78;43.54
42671;BME280;28283;55.426;37.756;2022-09-09T14:33:51;100423.72;;;12.63;43.23
42671;BME280;28283;55.426;37.756;2022-09-09T14:39:06;100421.31;;;12.68;43.40
42671;BME280;28283;55.426;37.756;2022-09-09T14:44:46;100420.75;;;12.72;42.59
42671;BME280;28283;55.426;37.756;2022-09-09T14:49:46;100428.09;;;12.64;42.94
42671;BME280;28283;55.426;37.756;2022-09-09T14:54:49;100414.91;;;12.39;42.70
42671;BME280;28283;55.426;37.756;2022-09-09T14:59:50;100426.72;;;12.38;44.23
42671;BME280;28283;55.426;37.756;2022-09-09T15:04:50;100437.88;;;12.50;44.17
42671;BME280;28283;55.426;37.756;2022-09-09T15:09:53;100413.72;;;12.27;43.78
42671;BME280;28283;55.426;37.756;2022-09-09T15:14:53;100408.75;;;12.45;44.42
42671;BME280;28283;55.426;37.756;2022-09-09T15:19:55;100446.63;;;12.52;44.57
42671;BME280;28283;55.426;37.756;2022-09-09T15:24:55;100403.94;;;12.26;44.97
42671;BME280;28283;55.426;37.756;2022-09-09T15:29:56;100447.16;;;12.32;45.41
42671;BME280;28283;55.426;37.756;2022-09-09T15:34:58;100459.88;;;12.09;46.45
42671;BME280;28283;55.426;37.756;2022-09-09T15:39:59;100425.03;;;11.69;46.28
42671;BME280;28283;55.426;37.756;2022-09-09T15:45:01;100469.84;;;11.85;47.06
42671;BME280;28283;55.426;37.756;2022-09-09T15:50:02;100460.34;;;11.74;47.75
42671;BME280;28283;55.426;37.756;2022-09-09T15:55:03;100466.88;;;11.57;47.91
42671;BME280;28283;55.426;37.756;2022-09-09T16:00:04;100470.47;;;11.49;48.60
42671;BME280;28283;55.426;37.756;2022-09-09T16:05:06;100473.38;;;11.39;48.28
42671;BME280;28283;55.426;37.756;2022-09-09T16:10:08;100485.50;;;11.43;47.84
42671;BME280;28283;55.426;37.756;2022-09-09T16:15:08;100450.22;;;11.07;48.70
42671;BME280;28283;55.426;37.756;2022-09-09T16:20:09;100496.88;;;11.22;49.45
42671;BME280;28283;55.426;37.756;2022-09-09T16:25:12;100422.25;;;10.54;50.12
42671;BME280;28283;55.426;37.756;2022-09-09T16:30:12;100501.91;;;10.94;50.56
42671;BME280;28283;55.426;37.756;2022-09-09T16:35:13;100493.91;;;10.78;50.74
42671;BME280;28283;55.426;37.756;2022-09-09T16:40:14;100496.34;;;10.56;51.84
42671;BME280;28283;55.426;37.756;2022-09-09T16:45:15;100516.78;;;10.74;50.82
42671;BME280;28283;55.426;37.756;2022-09-09T16:50:16;100511.13;;;10.52;52.04
42671;BME280;28283;55.426;37.756;2022-09-09T16:55:17;100520.91;;;10.45;52.28
42671;BME280;28283;55.426;37.756;2022-09-09T17:00:20;100527.44;;;10.42;52.24
42671;BME280;28283;55.426;37.756;2022-09-09T17:05:23;100520.91;;;10.28;52.87
42671;BME280;28283;55.426;37.756;2022-09-09T17:10:25;100473.25;;;9.89;52.97
42671;BME280;28283;55.426;37.756;2022-09-09T17:15:26;100496.72;;;9.96;54.35
42671;BME280;28283;55.426;37.756;2022-09-09T17:20:26;100495.06;;;9.94;54.27
42671;BME280;28283;55.426;37.756;2022-09-09T17:25:27;100534.53;;;10.10;55.44
42671;BME280;28283;55.426;37.756;2022-09-09T17:30:28;100514.38;;;9.90;55.81
42671;BME280;28283;55.426;37.756;2022-09-09T17:35:29;100484.00;;;9.65;56.44
42671;BME280;28283;55.426;37.756;2022-09-09T17:40:30;100548.94;;;9.93;56.48
42671;BME280;28283;55.426;37.756;2022-09-09T17:45:31;100535.00;;;9.81;55.64
42671;BME280;28283;55.426;37.756;2022-09-09T17:50:32;100547.41;;;9.74;56.61
42671;BME280;28283;55.426;37.756;2022-09-09T17:55:34;100531.97;;;9.60;56.73
42671;BME280;28283;55.426;37.756;2022-09-09T18:00:35;100524.72;;;9.44;58.61
42671;BME280;28283;55.426;37.756;2022-09-09T18:05:44;100550.09;;;9.58;58.34
42671;BME280;28283;55.426;37.756;2022-09-09T18:10:52;100472.84;;;9.18;59.59
42671;BME280;28283;55.426;37.756;2022-09-09T18:16:20;100535.63;;;9.50;57.14
42671;BME280;28283;55.426;37.756;2022-09-09T18:21:21;100444.81;;;8.88;56.79
42671;BME280;28283;55.426;37.756;2022-09-09T18:26:33;100550.25;;;9.48;58.23
42671;BME280;28283;55.426;37.756;2022-09-09T18:31:34;100542.66;;;9.43;56.93
42671;BME280;28283;55.426;37.756;2022-09-09T18:36:45;100537.63;;;9.32;57.27
42671;BME280;28283;55.426;37.756;2022-09-09T18:41:48;100535.88;;;9.14;58.12
42671;BME280;28283;55.426;37.756;2022-09-09T18:46:53;100558.69;;;9.18;58.70
42671;BME280;28283;55.426;37.756;2022-09-09T18:51:54;100551.78;;;9.08;59.84
42671;BME280;28283;55.426;37.756;2022-09-09T18:56:56;100519.16;;;8.78;59.34
42671;BME280;28283;55.426;37.756;2022-09-09T19:02:03;100537.09;;;8.77;58.89
42671;BME280;28283;55.426;37.756;2022-09-09T19:08:01;100571.28;;;8.84;59.04
42671;BME280;28283;55.426;37.756;2022-09-09T19:13:57;100437.34;;;7.79;60.70
42671;BME280;28283;55.426;37.756;2022-09-09T19:19:28;100484.50;;;8.24;61.10
42671;BME280;28283;55.426;37.756;2022-09-09T19:25:04;100537.72;;;8.45;62.69
42671;BME280;28283;55.426;37.756;2022-09-09T19:30:13;100524.56;;;8.34;63.03
42671;BME280;28283;55.426;37.756;2022-09-09T19:35:38;100564.94;;;8.58;63.11
42671;BME280;28283;55.426;37.756;2022-09-09T19:41:32;100575.41;;;8.44;63.12
42671;BME280;28283;55.426;37.756;2022-09-09T19:47:02;100545.25;;;8.23;62.63
42671;BME280;28283;55.426;37.756;2022-09-09T19:52:08;100523.72;;;7.89;61.63
42671;BME280;28283;55.426;37.756;2022-09-09T19:57:09;100580.28;;;8.30;62.13
42671;BME280;28283;55.426;37.756;2022-09-09T20:02:12;100558.66;;;8.06;62.22
42671;BME280;28283;55.426;37.756;2022-09-09T20:07:14;100562.44;;;7.95;62.53
42671;BME280;28283;55.426;37.756;2022-09-09T20:12:15;100559.16;;;7.83;63.03
42671;BME280;28283;55.426;37.756;2022-09-09T20:17:16;100559.53;;;7.88;62.76
42671;BME280;28283;55.426;37.756;2022-09-09T20:22:16;100528.94;;;7.55;63.68
42671;BME280;28283;55.426;37.756;2022-09-09T20:27:17;100585.53;;;7.78;64.06
42671;BME280;28283;55.426;37.756;2022-09-09T20:32:21;100603.50;;;7.68;64.71
42671;BME280;28283;55.426;37.756;2022-09-09T20:37:29;100558.28;;;7.29;64.58
42671;BME280;28283;55.426;37.756;2022-09-09T20:42:35;100573.97;;;7.41;64.83
42671;BME280;28283;55.426;37.756;2022-09-09T20:47:35;100563.81;;;7.45;65.20
42671;BME280;28283;55.426;37.756;2022-09-09T20:52:44;100521.00;;;6.99;66.23
42671;BME280;28283;55.426;37.756;2022-09-09T20:57:44;100532.91;;;7.05;65.94
42671;BME280;28283;55.426;37.756;2022-09-09T21:02:45;100437.09;;;6.27;66.45
42671;BME280;28283;55.426;37.756;2022-09-09T21:07:46;100537.78;;;6.92;67.31
42671;BME280;28283;55.426;37.756;2022-09-09T21:12:47;100476.28;;;6.64;67.47
42671;BME280;28283;55.426;37.756;2022-09-09T21:17:48;100616.13;;;7.57;65.32
42671;BME280;28283;55.426;37.756;2022-09-09T21:22:49;100434.84;;;6.22;67.26
42671;BME280;28283;55.426;37.756;2022-09-09T21:27:49;100521.13;;;6.70;67.37
42671;BME280;28283;55.426;37.756;2022-09-09T21:32:50;100550.06;;;6.84;67.85
42671;BME280;28283;55.426;37.756;2022-09-09T21:37:51;100439.66;;;6.19;67.89
42671;BME280;28283;55.426;37.756;2022-09-09T21:42:51;100479.22;;;6.33;67.87
42671;BME280;28283;55.426;37.756;2022-09-09T21:47:52;100621.41;;;7.12;67.97
42671;BME280;28283;55.426;37.756;2022-09-09T21:52:53;100559.53;;;6.69;68.47
42671;BME280;28283;55.426;37.756;2022-09-09T21:57:54;100537.22;;;6.50;69.06
42671;BME280;28283;55.426;37.756;2022-09-09T22:02:55;100506.97;;;6.13;69.53
42671;BME280;28283;55.426;37.756;2022-09-09T22:07:57;100634.63;;;7.13;67.80
42671;BME280;28283;55.426;37.756;2022-09-09T22:12:58;100579.66;;;6.63;69.91
42671;BME280;28283;55.426;37.756;2022-09-09T22:18:19;100624.41;;;6.99;68.22
42671;BME280;28283;55.426;37.756;2022-09-09T22:23:20;100610.13;;;6.80;70.07
42671;BME280;28283;55.426;37.756;2022-09-09T22:28:22;100619.13;;;6.79;70.42
42671;BME280;28283;55.426;37.756;2022-09-09T22:33:23;100560.91;;;6.36;70.49
42671;BME280;28283;55.426;37.756;2022-09-09T22:38:23;100631.66;;;6.69;71.19
42671;BME280;28283;55.426;37.756;2022-09-09T22:43:24;100471.19;;;5.66;70.80
42671;BME280;28283;55.426;37.756;2022-09-09T22:48:25;100527.94;;;5.98;71.55
42671;BME280;28283;55.426;37.756;2022-09-09T22:53:25;100526.34;;;5.95;71.61
42671;BME280;28283;55.426;37.756;2022-09-09T22:58:28;100626.91;;;6.63;71.19
42671;BME280;28283;55.426;37.756;2022-09-09T23:03:30;100636.34;;;6.57;71.71
42671;BME280;28283;55.426;37.756;2022-09-09T23:08:36;100637.59;;;6.53;72.26
42671;BME280;28283;55.426;37.756;2022-09-09T23:13:38;100608.69;;;6.29;71.72
42671;BME280;28283;55.426;37.756;2022-09-09T23:18:41;100619.66;;;6.26;72.13
42671;BME280;28283;55.426;37.756;2022-09-09T23:23:43;100632.88;;;6.37;72.54
42671;BME280;28283;55.426;37.756;2022-09-09T23:28:45;100619.78;;;6.24;72.29
42671;BME280;28283;55.426;37.756;2022-09-09T23:33:48;100598.16;;;6.08;72.41
42671;BME280;28283;55.426;37.756;2022-09-09T23:38:50;100628.22;;;6.20;72.23
42671;BME280;28283;55.426;37.756;2022-09-09T23:43:52;100639.63;;;6.22;72.79
42671;BME280;28283;55.426;37.756;2022-09-09T23:48:55;100640.44;;;6.22;72.09
42671;BME280;28283;55.426;37.756;2022-09-09T23:53:59;100641.31;;;6.23;72.71
42671;BME280;28283;55.426;37.756;2022-09-09T23:59:05;100615.88;;;6.09;72.54
